Radar AviationWeather DUATS TFRs Wunderground Accuweather Weather.com

alt : Radar

TAFs

KCLE 202048Z 2021/2124 14010KT P6SM SCT040
   FM202300 18014KT P6SM SCT100
   FM211400 22012G20KT P6SM SCT045
   FM211800 24015G25KT P6SM BKN040
KDTW 202039Z 2021/2124 12008KT P6SM BKN015 BKN100
   FM202200 14008KT P6SM VCTS SCT015 BKN040CB BKN070
   FM210000 14007KT P6SM SCT070 SCT150
   FM210400 20011KT P6SM SCT070 SCT150 WS020/20045KT
   FM211400 23018G28KT P6SM BKN100
   FM211700 25020G32KT P6SM VCSH BKN050 BKN100
     PROB30 2117/2121 4SM -TSRA BKN035CB OVC050
KJXN 201740Z 2018/2118 14008KT P6SM SCT040
   FM210600 20012KT P6SM FEW045 FEW250 WS020/23040KT
   FM211400 23016G30KT P6SM BKN080
   FM211700 26016G29KT P6SM BKN030
KFDY 201730Z 2018/2118 21009KT P6SM SCT045
   FM210100 18007KT P6SM FEW250
   FM211400 22015KT P6SM SCT045
KTOL 201730Z 2018/2118 19006KT P6SM SCT045
   FM210100 21010KT P6SM FEW250
   FM211700 24019G28KT P6SM BKN045
KFWA 201720Z 2018/2118 21012G18KT P6SM SCT250
   FM211200 22014KT P6SM -SHRA SCT250 WS020/24049KT
   FM211600 23014G23KT P6SM SCT200

METARs

KDTW 202100Z VRB04KT 9SM SCT020 BKN100 26/20 A3000 RMK AO2 T02560200
KJXN 202056Z 13009KT 10SM CLR 28/21 A2997 RMK AO2 LTG DSNT SW SLP141 TS DSNT SW T02830211 58020
KDUH 202055Z AUTO 11006KT 10SM CLR 27/20 A2998 RMK AO2 T02700204
KFWA 202054Z 20016G19KT 10SM FEW060 SCT250 32/22 A2995 RMK AO2 SLP136 T03220222 56021
KFDY 202053Z AUTO 21011KT 10SM FEW065 SCT110 33/19 A2996 RMK AO2 SLP136 T03280194 56022
KTDZ 202053Z AUTO 08008KT 10SM CLR 28/22 A2999 RMK AO2 SLP151 T02780217 56024
KTOL 202052Z 10005KT 10SM CLR 29/22 A2997 RMK AO2 SLP143 T02940217 56025
KCLE 202051Z 12012KT 10SM FEW060 SCT250 29/20 A3004 RMK AO2 TSE1954 SLP167 60000 T02940200 58017

alt : Satellite

alt : TFRs